Time;durP1;ratioP1;P1;durP2;ratioP2;P2;SDS_P1;SDS_P2;PMS_P1;PMS_P2;Temp;Humidity;BMP_temperature;BMP_pressure;BME280_temperature;BME280_humidity;BME280_pressure;Samples;Min_cycle;Max_cycle;Signal;HPM_P1;HPM_P2
2022/08/07 00:01:14;;;;;;;8.15;5.95;;;12.80;99.90;;;;;;5035079;28;20056;-68
2022/08/07 00:03:41;;;;;;;10.10;5.50;;;12.70;99.90;;;;;;5033850;28;20048;-68
2022/08/07 00:06:08;;;;;;;7.90;5.65;;;12.70;99.90;;;;;;5052311;28;20516;-68
2022/08/07 00:08:36;;;;;;;8.40;5.50;;;12.70;99.90;;;;;;5053286;28;20053;-68
2022/08/07 00:11:04;;;;;;;6.47;4.75;;;12.70;99.90;;;;;;5034047;28;20053;-68
2022/08/07 00:13:31;;;;;;;8.82;4.97;;;12.70;99.90;;;;;;5052504;28;20516;-69
2022/08/07 00:15:58;;;;;;;9.40;6.28;;;12.70;99.90;;;;;;5052215;28;20118;-68
2022/08/07 00:18:28;;;;;;;9.55;5.68;;;12.60;99.90;;;;;;5034656;28;20070;-67
2022/08/07 00:20:57;;;;;;;8.30;5.20;;;12.60;99.90;;;;;;5053087;28;20057;-67
2022/08/07 00:23:25;;;;;;;7.20;5.28;;;12.60;99.90;;;;;;5034137;28;20052;-67
2022/08/07 00:25:52;;;;;;;9.15;5.68;;;12.50;99.90;;;;;;5034989;28;20053;-68
2022/08/07 00:28:20;;;;;;;7.38;5.40;;;12.50;99.90;;;;;;5034685;28;20067;-69
2022/08/07 00:30:47;;;;;;;7.07;5.40;;;12.60;99.90;;;;;;5051490;28;20497;-68
2022/08/07 00:33:14;;;;;;;7.00;5.10;;;12.50;99.90;;;;;;5052246;28;20103;-68
2022/08/07 00:35:42;;;;;;;10.00;5.88;;;12.50;99.90;;;;;;5034658;28;20110;-68
2022/08/07 00:38:09;;;;;;;8.63;5.50;;;12.50;99.90;;;;;;5034218;28;20061;-68
2022/08/07 00:40:37;;;;;;;7.38;5.20;;;12.50;99.90;;;;;;5054529;28;20048;-68
2022/08/07 00:43:04;;;;;;;7.88;6.07;;;12.50;99.90;;;;;;5056052;28;20095;-68
2022/08/07 00:45:31;;;;;;;7.22;5.43;;;12.40;99.90;;;;;;5055702;28;20052;-68
2022/08/07 00:47:58;;;;;;;9.32;5.85;;;12.40;99.90;;;;;;5039045;28;20122;-68
2022/08/07 00:50:25;;;;;;;8.23;5.43;;;12.40;99.90;;;;;;5056231;28;20049;-68
2022/08/07 00:52:53;;;;;;;9.38;5.70;;;12.30;99.90;;;;;;5055523;28;20538;-69
2022/08/07 00:55:20;;;;;;;9.32;6.25;;;12.40;99.90;;;;;;5038409;28;20053;-69
2022/08/07 00:57:47;;;;;;;10.20;6.22;;;12.30;99.90;;;;;;5056182;28;20053;-68
2022/08/07 01:00:15;;;;;;;8.15;5.93;;;12.30;99.90;;;;;;5036907;28;20053;-67
2022/08/07 01:02:42;;;;;;;10.60;6.50;;;12.30;99.90;;;;;;5037557;28;20127;-68
2022/08/07 01:05:11;;;;;;;11.25;6.55;;;12.30;99.90;;;;;;5055179;28;20055;-67
2022/08/07 01:07:38;;;;;;;8.65;6.10;;;12.30;99.90;;;;;;5038376;28;20053;-68
2022/08/07 01:10:08;;;;;;;9.50;6.10;;;12.20;99.90;;;;;;5055867;28;20128;-68
2022/08/07 01:12:35;;;;;;;12.25;6.30;;;12.20;99.90;;;;;;5037052;28;20489;-69
2022/08/07 01:15:03;;;;;;;9.00;5.85;;;12.20;99.90;;;;;;5056011;28;20056;-69
2022/08/07 01:17:30;;;;;;;17.80;6.70;;;12.20;99.90;;;;;;5055914;28;20488;-69
2022/08/07 01:20:04;;;;;;;9.05;6.20;;;12.10;99.90;;;;;;5054995;28;20497;-68
2022/08/07 01:22:32;;;;;;;9.20;6.10;;;12.10;99.90;;;;;;5055804;28;20499;-68
2022/08/07 01:25:01;;;;;;;8.98;6.07;;;12.10;99.90;;;;;;5037391;28;20057;-67
2022/08/07 01:27:28;;;;;;;9.60;5.78;;;12.10;99.90;;;;;;5054886;28;20076;-68
2022/08/07 01:29:55;;;;;;;12.57;5.78;;;12.10;99.90;;;;;;5038183;28;20053;-68
2022/08/07 01:32:22;;;;;;;9.18;6.07;;;12.00;99.90;;;;;;5037897;28;20045;-68
2022/08/07 01:34:49;;;;;;;10.73;6.40;;;12.00;99.90;;;;;;5037365;28;20094;-68
2022/08/07 01:37:17;;;;;;;10.25;6.25;;;12.00;99.90;;;;;;5055548;28;20114;-68
2022/08/07 01:39:46;;;;;;;8.55;6.15;;;12.00;99.90;;;;;;5055033;28;20053;-68
2022/08/07 01:42:14;;;;;;;7.85;5.93;;;11.90;99.90;;;;;;5054757;28;20106;-68
2022/08/07 01:44:41;;;;;;;10.18;6.32;;;11.90;99.90;;;;;;5037452;28;20056;-68
2022/08/07 01:47:09;;;;;;;9.52;6.55;;;11.80;99.90;;;;;;5037790;28;20053;-68
2022/08/07 01:49:36;;;;;;;9.13;6.07;;;11.80;99.90;;;;;;5036681;28;20061;-68
2022/08/07 01:52:05;;;;;;;8.85;5.70;;;11.80;99.90;;;;;;5054388;28;20554;-68
2022/08/07 01:54:36;;;;;;;8.98;6.32;;;11.80;99.90;;;;;;5036494;28;20060;-68
2022/08/07 01:57:07;;;;;;;8.90;6.43;;;11.80;99.90;;;;;;5037331;28;20089;-69
2022/08/07 01:59:42;;;;;;;9.25;5.90;;;11.70;99.90;;;;;;5037272;28;20061;-68
2022/08/07 02:02:17;;;;;;;8.30;6.20;;;11.70;99.90;;;;;;5054302;28;20048;-68
2022/08/07 02:04:49;;;;;;;11.65;6.65;;;11.70;99.90;;;;;;5054990;28;20391;-68
2022/08/07 02:07:17;;;;;;;9.88;6.40;;;11.70;99.90;;;;;;5055245;28;20057;-68
2022/08/07 02:09:46;;;;;;;8.45;6.05;;;11.70;99.90;;;;;;5036348;28;20065;-70
2022/08/07 02:12:19;;;;;;;8.65;5.85;;;11.60;99.90;;;;;;5054520;28;20482;-68
2022/08/07 02:14:49;;;;;;;9.00;5.90;;;11.60;99.90;;;;;;5036430;28;20106;-68
2022/08/07 02:17:17;;;;;;;11.27;6.13;;;11.60;99.90;;;;;;5053975;28;20057;-69
2022/08/07 02:19:48;;;;;;;8.13;5.68;;;11.60;99.90;;;;;;5054603;28;20060;-68
2022/08/07 02:22:18;;;;;;;7.68;5.45;;;11.60;99.90;;;;;;5054901;28;20048;-69
2022/08/07 02:24:47;;;;;;;8.43;6.03;;;11.50;99.90;;;;;;5035928;28;20082;-68
2022/08/07 02:27:19;;;;;;;8.88;6.07;;;11.50;99.90;;;;;;5054655;28;20057;-68
2022/08/07 02:29:48;;;;;;;9.95;6.57;;;11.40;99.90;;;;;;5035667;28;20056;-69
2022/08/07 02:32:16;;;;;;;8.45;5.82;;;11.30;99.90;;;;;;5054674;28;20119;-67
2022/08/07 02:34:44;;;;;;;8.90;6.35;;;11.20;99.90;;;;;;5054477;28;20485;-67
2022/08/07 02:37:13;;;;;;;9.50;6.57;;;11.20;99.90;;;;;;5053354;28;20102;-68
2022/08/07 02:39:43;;;;;;;11.32;7.72;;;11.10;99.90;;;;;;5036146;28;20081;-69
2022/08/07 02:42:12;;;;;;;10.18;7.15;;;11.10;99.90;;;;;;5054144;28;20045;-69
2022/08/07 02:44:44;;;;;;;11.55;7.28;;;11.10;99.90;;;;;;5053715;28;20182;-69
2022/08/07 02:47:14;;;;;;;10.32;7.03;;;11.00;99.90;;;;;;5036154;28;20059;-68
2022/08/07 02:49:41;;;;;;;13.55;7.43;;;11.10;99.90;;;;;;5036626;28;20110;-68
2022/08/07 02:52:13;;;;;;;10.23;6.65;;;11.00;99.90;;;;;;5053260;28;20493;-68
2022/08/07 02:54:42;;;;;;;11.00;7.63;;;11.10;99.90;;;;;;5036305;28;20049;-68
2022/08/07 02:57:13;;;;;;;11.15;7.28;;;11.10;99.90;;;;;;5036634;28;20048;-68
2022/08/07 02:59:47;;;;;;;9.93;7.07;;;11.10;99.90;;;;;;5053574;28;20114;-68
2022/08/07 03:02:15;;;;;;;13.25;7.55;;;11.00;99.90;;;;;;5053378;28;20412;-68
2022/08/07 03:04:45;;;;;;;13.43;7.43;;;11.00;99.90;;;;;;5034784;28;20053;-68
2022/08/07 03:07:13;;;;;;;12.32;6.40;;;11.10;99.90;;;;;;5053915;28;20045;-69
2022/08/07 03:09:41;;;;;;;12.32;7.28;;;11.00;99.90;;;;;;5035897;28;20049;-68
2022/08/07 03:12:09;;;;;;;10.98;6.80;;;11.00;99.90;;;;;;5035272;28;20103;-68
2022/08/07 03:14:37;;;;;;;12.95;7.07;;;11.00;99.90;;;;;;5053761;28;20135;-68
2022/08/07 03:17:05;;;;;;;13.43;6.78;;;11.00;99.90;;;;;;5036354;28;20444;-67
2022/08/07 03:19:34;;;;;;;12.13;7.38;;;11.00;99.90;;;;;;5052849;28;20111;-68
2022/08/07 03:22:02;;;;;;;9.48;7.10;;;11.00;99.90;;;;;;5053413;28;20599;-67
2022/08/07 03:24:29;;;;;;;11.90;8.07;;;11.00;99.90;;;;;;5053403;28;20107;-68
2022/08/07 03:27:00;;;;;;;9.27;6.60;;;10.90;99.90;;;;;;5052566;28;20496;-68
2022/08/07 03:29:32;;;;;;;8.15;5.97;;;10.90;99.90;;;;;;5053252;28;20492;-68
2022/08/07 03:32:01;;;;;;;8.63;6.65;;;11.00;99.90;;;;;;5035965;28;20145;-68
2022/08/07 03:34:31;;;;;;;9.15;5.88;;;11.00;99.90;;;;;;5035082;28;20048;-68
2022/08/07 03:37:01;;;;;;;8.20;5.57;;;10.90;99.90;;;;;;5053445;28;20111;-68
2022/08/07 03:39:31;;;;;;;10.48;7.18;;;11.00;99.90;;;;;;5035727;28;20053;-67
2022/08/07 03:41:58;;;;;;;9.80;7.07;;;10.90;99.90;;;;;;5035058;28;20489;-67
2022/08/07 03:44:26;;;;;;;10.73;7.28;;;11.00;99.90;;;;;;5052928;28;20497;-67
2022/08/07 03:46:53;;;;;;;13.65;6.97;;;11.00;99.90;;;;;;5034495;28;20053;-68
2022/08/07 03:49:20;;;;;;;10.55;6.82;;;11.00;99.90;;;;;;5052875;28;20048;-68
2022/08/07 03:51:50;;;;;;;9.75;6.57;;;10.90;99.90;;;;;;5034823;28;20049;-67
2022/08/07 03:54:17;;;;;;;11.77;7.13;;;11.00;99.90;;;;;;5051127;28;20057;-68
2022/08/07 03:56:46;;;;;;;7.45;5.35;;;11.00;99.90;;;;;;5035216;28;20048;-68
2022/08/07 03:59:13;;;;;;;11.32;6.95;;;11.00;99.90;;;;;;5052822;28;20056;-68
2022/08/07 04:01:42;;;;;;;7.88;6.10;;;10.90;99.90;;;;;;5051592;28;20065;-69
2022/08/07 04:04:09;;;;;;;11.05;6.30;;;11.00;99.90;;;;;;5053051;28;20120;-67
2022/08/07 04:06:39;;;;;;;11.50;6.35;;;11.00;99.90;;;;;;5052771;28;20052;-68
2022/08/07 04:09:08;;;;;;;10.18;6.57;;;11.00;99.90;;;;;;5051968;28;20126;-68
2022/08/07 04:11:35;;;;;;;9.30;6.20;;;11.00;99.90;;;;;;5051789;28;20110;-69
2022/08/07 04:14:02;;;;;;;9.10;5.78;;;11.00;99.90;;;;;;5034885;28;20045;-69
2022/08/07 04:16:30;;;;;;;10.63;6.47;;;11.00;99.90;;;;;;5033903;28;20053;-69
2022/08/07 04:18:57;;;;;;;10.85;6.07;;;11.00;99.90;;;;;;5034037;28;20060;-68
2022/08/07 04:21:24;;;;;;;8.25;6.20;;;11.00;99.90;;;;;;5052080;28;20163;-69
2022/08/07 04:23:52;;;;;;;9.40;5.65;;;11.10;99.90;;;;;;5033842;28;20095;-68
2022/08/07 04:26:20;;;;;;;8.40;5.57;;;11.10;99.90;;;;;;5052409;28;20053;-69
2022/08/07 04:28:47;;;;;;;11.60;6.15;;;11.10;99.90;;;;;;5034124;28;20053;-68
2022/08/07 04:31:14;;;;;;;8.82;6.47;;;11.20;99.90;;;;;;5033767;28;20057;-68
2022/08/07 04:33:42;;;;;;;10.73;5.55;;;11.20;99.90;;;;;;5034490;28;20049;-68
2022/08/07 04:36:09;;;;;;;7.63;4.97;;;11.20;99.90;;;;;;5052369;28;20055;-69
2022/08/07 04:38:37;;;;;;;9.63;5.93;;;11.50;99.90;;;;;;5034413;28;20404;-68
2022/08/07 04:41:04;;;;;;;10.70;5.75;;;11.20;99.90;;;;;;5034230;28;20106;-68
2022/08/07 04:43:34;;;;;;;10.60;6.50;;;11.20;99.90;;;;;;5051355;28;20548;-68
2022/08/07 04:46:06;;;;;;;9.27;5.57;;;11.30;99.90;;;;;;5034624;28;20057;-68
2022/08/07 04:48:42;;;;;;;9.10;5.68;;;11.30;99.90;;;;;;5052740;28;20045;-67
2022/08/07 04:51:16;;;;;;;9.45;5.95;;;11.40;99.90;;;;;;5051652;28;20045;-69
2022/08/07 04:53:50;;;;;;;10.15;5.80;;;11.50;99.90;;;;;;5052030;28;20040;-68
2022/08/07 04:56:24;;;;;;;9.20;5.80;;;11.50;99.90;;;;;;5034617;28;20056;-69
2022/08/07 04:59:01;;;;;;;12.05;6.60;;;11.50;99.90;;;;;;5034024;28;20390;-68
2022/08/07 05:01:37;;;;;;;9.32;5.80;;;11.60;99.90;;;;;;5034559;28;20107;-68
2022/08/07 05:04:11;;;;;;;8.00;5.82;;;11.70;99.90;;;;;;5051835;28;20048;-68
2022/08/07 05:06:46;;;;;;;10.10;6.55;;;11.70;99.90;;;;;;5051781;28;20451;-68
2022/08/07 05:09:24;;;;;;;10.50;6.40;;;11.80;99.90;;;;;;5034318;28;20049;-68
2022/08/07 05:11:53;;;;;;;8.98;6.00;;;11.80;99.90;;;;;;5051453;28;20057;-68
2022/08/07 05:14:26;;;;;;;9.27;6.00;;;11.90;99.90;;;;;;5034185;28;20056;-67
2022/08/07 05:16:57;;;;;;;8.35;5.88;;;12.00;99.90;;;;;;5034879;28;20059;-68
2022/08/07 05:19:27;;;;;;;8.95;6.20;;;12.10;99.90;;;;;;5051183;28;20467;-68
2022/08/07 05:21:59;;;;;;;7.95;5.93;;;12.20;99.90;;;;;;5051484;28;20539;-68
2022/08/07 05:24:28;;;;;;;13.70;6.35;;;12.30;99.90;;;;;;5033880;28;20053;-68
2022/08/07 05:26:58;;;;;;;10.27;6.70;;;12.40;99.90;;;;;;5051992;28;20465;-67
2022/08/07 05:29:27;;;;;;;11.20;5.10;;;12.50;99.90;;;;;;5037890;28;20088;-67
2022/08/07 05:31:56;;;;;;;9.80;5.38;;;12.70;99.90;;;;;;5055988;28;20053;-68
2022/08/07 05:34:24;;;;;;;11.55;6.10;;;12.90;99.90;;;;;;5054664;28;20041;-69
2022/08/07 05:36:53;;;;;;;6.97;5.20;;;13.10;99.90;;;;;;5056157;28;20444;-68
2022/08/07 05:39:22;;;;;;;11.35;5.47;;;13.30;99.90;;;;;;5055185;28;20472;-68
2022/08/07 05:41:50;;;;;;;7.38;4.97;;;13.40;99.90;;;;;;5036881;28;20455;-67
2022/08/07 05:44:18;;;;;;;8.25;5.00;;;13.50;99.90;;;;;;5037557;28;20053;-68
2022/08/07 05:46:49;;;;;;;8.70;5.32;;;13.60;99.90;;;;;;5037180;28;20495;-68
2022/08/07 05:49:16;;;;;;;7.85;5.07;;;13.80;99.90;;;;;;5037776;28;20064;-68
2022/08/07 05:51:45;;;;;;;8.30;5.18;;;13.90;99.90;;;;;;5055551;28;20048;-67
2022/08/07 05:54:12;;;;;;;7.80;5.20;;;14.10;99.90;;;;;;5054489;28;20485;-67
2022/08/07 05:56:41;;;;;;;6.75;4.70;;;14.30;99.90;;;;;;5055433;28;20044;-68
2022/08/07 05:59:14;;;;;;;8.70;4.78;;;14.50;99.90;;;;;;5037731;28;20143;-67
2022/08/07 06:01:42;;;;;;;9.57;5.00;;;14.70;99.90;;;;;;5037323;28;20546;-69
2022/08/07 06:04:11;;;;;;;7.40;4.45;;;14.90;99.90;;;;;;5037396;28;20484;-68
2022/08/07 06:06:39;;;;;;;6.72;4.75;;;15.10;99.90;;;;;;5055654;28;20056;-69
2022/08/07 06:09:06;;;;;;;6.72;4.47;;;15.30;99.90;;;;;;5052973;28;20048;-67
2022/08/07 06:11:33;;;;;;;6.72;4.32;;;15.70;99.90;;;;;;5033755;28;20099;-68
2022/08/07 06:14:00;;;;;;;10.02;5.18;;;16.00;99.90;;;;;;5015807;28;20514;-68
2022/08/07 06:16:31;;;;;;;7.43;4.65;;;16.40;99.90;;;;;;5016534;28;20517;-69
2022/08/07 06:18:59;;;;;;;9.32;4.00;;;16.60;99.90;;;;;;5032585;28;20061;-69
2022/08/07 06:21:29;;;;;;;6.82;3.58;;;17.00;99.90;;;;;;5033808;28;20092;-68
2022/08/07 06:23:57;;;;;;;6.47;4.25;;;17.30;99.90;;;;;;5015644;28;20057;-68
2022/08/07 06:26:24;;;;;;;5.38;3.90;;;17.60;99.90;;;;;;5036105;28;20041;-70
2022/08/07 06:28:53;;;;;;;6.55;3.53;;;17.90;99.90;;;;;;5015313;28;20061;-69
2022/08/07 06:31:20;;;;;;;6.45;3.83;;;18.10;99.90;;;;;;5033496;28;20438;-69
2022/08/07 06:33:48;;;;;;;7.90;3.90;;;18.30;99.90;;;;;;5036077;28;20501;-69
2022/08/07 06:36:15;;;;;;;6.80;3.80;;;18.60;99.90;;;;;;5031574;28;20060;-69
2022/08/07 06:38:44;;;;;;;6.30;3.97;;;18.90;99.90;;;;;;5033466;28;20119;-70
2022/08/07 06:41:17;;;;;;;7.03;3.97;;;19.20;99.90;;;;;;5032304;28;20553;-70
2022/08/07 06:43:46;;;;;;;6.78;4.00;;;19.50;99.90;;;;;;5031866;28;20510;-70
2022/08/07 06:46:14;;;;;;;9.32;3.65;;;19.80;99.90;;;;;;5020519;28;20060;-69
2022/08/07 06:48:41;;;;;;;9.35;3.75;;;20.30;99.90;;;;;;5017886;28;20099;-70
2022/08/07 06:51:10;;;;;;;7.60;4.38;;;20.70;99.90;;;;;;5013847;28;20087;-71
2022/08/07 06:53:39;;;;;;;6.22;4.20;;;21.20;99.90;;;;;;5015008;28;20100;-69
2022/08/07 06:56:09;;;;;;;4.47;3.10;;;21.70;99.10;;;;;;5031800;28;20437;-70
2022/08/07 06:58:37;;;;;;;5.00;3.20;;;22.30;98.00;;;;;;5014572;28;20041;-70
2022/08/07 07:01:07;;;;;;;5.30;3.78;;;22.70;97.60;;;;;;5032225;28;20115;-71
2022/08/07 07:03:37;;;;;;;5.72;3.28;;;23.00;95.10;;;;;;5032325;28;20042;-69
2022/08/07 07:06:05;;;;;;;4.97;3.17;;;23.40;95.50;;;;;;5013577;28;20049;-69
2022/08/07 07:08:32;;;;;;;4.97;3.40;;;23.50;94.60;;;;;;5015336;28;20095;-70
2022/08/07 07:10:59;;;;;;;4.82;3.10;;;23.80;94.30;;;;;;5031159;28;20049;-70
2022/08/07 07:13:34;;;;;;;5.53;3.05;;;24.20;93.50;;;;;;5016386;28;20045;-70
2022/08/07 07:16:07;;;;;;;5.63;3.15;;;24.40;92.60;;;;;;5032753;28;20405;-70
2022/08/07 07:18:39;;;;;;;4.60;2.30;;;24.80;92.30;;;;;;5013930;28;20529;-70
2022/08/07 07:21:10;;;;;;;5.53;2.65;;;25.20;90.80;;;;;;5031502;28;20480;-70
2022/08/07 07:23:38;;;;;;;5.18;2.40;;;25.50;90.70;;;;;;5014165;28;20049;-70
2022/08/07 07:26:09;;;;;;;3.05;2.00;;;25.70;90.30;;;;;;5016126;28;20103;-69
2022/08/07 07:28:42;;;;;;;4.72;2.13;;;26.00;89.20;;;;;;5041049;28;20045;-71
2022/08/07 07:31:15;;;;;;;2.60;1.95;;;26.10;87.10;;;;;;5035892;28;20072;-70
2022/08/07 07:33:44;;;;;;;4.18;1.92;;;26.20;86.20;;;;;;5030455;28;20049;-70
2022/08/07 07:36:11;;;;;;;3.40;2.08;;;26.30;86.70;;;;;;5014364;28;20049;-70
2022/08/07 07:38:39;;;;;;;4.57;1.98;;;26.30;85.90;;;;;;5014811;28;20045;-70
2022/08/07 07:41:08;;;;;;;4.32;2.20;;;26.30;84.90;;;;;;5031128;28;20049;-70
2022/08/07 07:43:40;;;;;;;3.83;1.90;;;26.50;84.60;;;;;;5015066;28;20087;-70
2022/08/07 07:46:09;;;;;;;3.75;2.35;;;26.60;83.50;;;;;;5016188;28;20315;-71
2022/08/07 07:48:37;;;;;;;3.05;2.10;;;26.60;82.70;;;;;;5013696;28;20390;-69
2022/08/07 07:51:05;;;;;;;3.88;2.28;;;26.80;82.00;;;;;;5029795;28;20497;-72
2022/08/07 07:53:33;;;;;;;3.38;2.55;;;27.00;82.00;;;;;;5012850;28;20077;-72
2022/08/07 07:56:01;;;;;;;4.50;2.53;;;27.20;80.60;;;;;;5013145;28;20449;-71
2022/08/07 07:58:31;;;;;;;3.65;2.50;;;27.50;79.70;;;;;;5032322;28;20048;-70
2022/08/07 08:01:00;;;;;;;;;;;27.10;78.90;;;;;;5014665;28;20134;-71
2022/08/07 08:03:29;;;;;;;4.70;2.92;;;27.10;76.40;;;;;;5014358;28;19967;-70
2022/08/07 08:05:57;;;;;;;3.95;2.58;;;27.30;79.20;;;;;;5013381;28;20119;-70
2022/08/07 08:08:26;;;;;;;3.97;2.38;;;27.30;78.50;;;;;;5030718;28;20441;-70
2022/08/07 08:10:54;;;;;;;4.28;2.35;;;27.10;78.70;;;;;;5031723;28;20490;-70
2022/08/07 08:13:24;;;;;;;4.60;2.50;;;26.90;78.10;;;;;;5017387;28;20064;-70
2022/08/07 08:15:52;;;;;;;6.07;2.53;;;27.00;77.70;;;;;;5031029;28;20053;-71
2022/08/07 08:18:22;;;;;;;3.42;2.30;;;27.20;77.30;;;;;;5019920;28;20049;-71
2022/08/07 08:20:50;;;;;;;4.07;2.63;;;27.40;76.50;;;;;;5012909;28;20119;-70
2022/08/07 08:28:53;;;;;;;4.00;2.47;;;28.10;76.20;;;;;;5013340;28;20391;-70
2022/08/07 08:31:23;;;;;;;4.20;2.50;;;28.10;75.30;;;;;;5031560;28;20052;-71
2022/08/07 08:33:54;;;;;;;4.30;2.30;;;28.30;74.40;;;;;;5016358;28;20057;-70
2022/08/07 08:36:24;;;;;;;6.18;2.40;;;28.60;74.70;;;;;;5029722;28;20555;-71
2022/08/07 08:38:53;;;;;;;4.47;2.22;;;28.60;74.00;;;;;;5014063;28;20118;-70
2022/08/07 08:41:24;;;;;;;3.78;2.33;;;28.70;73.50;;;;;;5016359;28;20451;-71
2022/08/07 08:44:02;;;;;;;4.15;2.38;;;28.80;73.10;;;;;;5015581;28;20049;-70
2022/08/07 08:46:39;;;;;;;5.10;2.35;;;29.10;71.00;;;;;;5035047;28;20049;-71
2022/08/07 08:49:16;;;;;;;7.30;2.85;;;28.70;72.30;;;;;;5015016;28;20053;-71
2022/08/07 08:51:59;;;;;;;5.65;2.30;;;29.20;72.00;;;;;;5014667;28;20468;-70
2022/08/07 08:54:30;;;;;;;6.05;2.80;;;29.40;71.70;;;;;;5033063;28;20091;-71
2022/08/07 08:57:00;;;;;;;4.53;2.00;;;29.10;71.80;;;;;;5042961;28;20099;-72
2022/08/07 08:59:34;;;;;;;2.67;1.90;;;29.20;71.50;;;;;;5013512;28;20421;-71
2022/08/07 09:02:12;;;;;;;3.40;2.20;;;29.70;70.00;;;;;;5018101;28;20467;-70
2022/08/07 09:04:48;;;;;;;4.25;2.30;;;29.30;70.20;;;;;;5033313;28;20107;-71
2022/08/07 09:07:19;;;;;;;3.97;2.10;;;29.00;70.60;;;;;;5017035;28;20115;-72
2022/08/07 09:09:57;;;;;;;2.72;2.13;;;29.10;70.90;;;;;;5016782;28;20061;-71
2022/08/07 09:12:42;;;;;;;3.97;2.40;;;29.20;69.70;;;;;;5017264;28;20046;-71
2022/08/07 09:15:31;;;;;;;2.72;1.88;;;29.40;69.10;;;;;;5034487;28;20436;-71
2022/08/07 09:18:14;;;;;;;5.23;1.80;;;29.50;68.20;;;;;;5024731;28;20537;-70
2022/08/07 09:20:51;;;;;;;4.60;1.98;;;30.00;69.20;;;;;;4997834;28;20052;-70
2022/08/07 09:23:31;;;;;;;3.45;1.83;;;30.40;68.50;;;;;;4999694;28;20117;-70
2022/08/07 09:26:16;;;;;;;3.50;2.17;;;30.60;67.40;;;;;;5013956;28;20046;-70
2022/08/07 09:28:47;;;;;;;5.13;1.80;;;30.80;67.10;;;;;;4998019;28;20426;-70
2022/08/07 09:31:20;;;;;;;4.93;2.30;;;30.80;67.00;;;;;;4997688;28;20184;-68
2022/08/07 09:34:07;;;;;;;4.10;1.90;;;30.80;65.90;;;;;;5015902;28;20054;-71
2022/08/07 09:36:39;;;;;;;3.40;1.80;;;30.90;65.80;;;;;;5002351;28;20042;-70
2022/08/07 09:39:23;;;;;;;4.30;1.92;;;30.80;65.30;;;;;;5015641;28;20053;-71
2022/08/07 09:42:04;;;;;;;2.60;1.58;;;30.80;65.50;;;;;;4997645;28;20058;-72
2022/08/07 09:44:44;;;;;;;2.50;1.95;;;30.80;63.00;;;;;;5015077;28;20104;-70
2022/08/07 09:47:19;;;;;;;3.95;2.15;;;30.80;64.70;;;;;;4995356;28;20183;-71
2022/08/07 09:49:56;;;;;;;2.85;1.90;;;30.40;66.00;;;;;;4996398;28;20045;-72
2022/08/07 09:52:33;;;;;;;2.42;1.45;;;30.80;65.60;;;;;;4996404;28;20045;-72
2022/08/07 09:55:09;;;;;;;2.10;1.50;;;30.70;63.10;;;;;;4995923;28;20046;-71
2022/08/07 09:58:13;;;;;;;3.70;1.45;;;30.70;63.50;;;;;;4999127;28;20442;-71
2022/08/07 10:00:55;;;;;;;5.07;1.40;;;31.10;62.30;;;;;;4995390;28;20049;-71
2022/08/07 10:03:40;;;;;;;4.72;1.58;;;30.80;60.90;;;;;;5013900;28;20050;-72
2022/08/07 10:06:40;;;;;;;4.38;2.00;;;30.70;62.20;;;;;;4996102;28;20041;-71
2022/08/07 10:09:37;;;;;;;3.10;1.80;;;31.20;62.20;;;;;;5016416;28;20049;-72
2022/08/07 10:12:18;;;;;;;2.63;1.90;;;30.70;61.80;;;;;;5013513;28;20046;-71
2022/08/07 10:15:10;;;;;;;3.03;2.08;;;30.50;63.40;;;;;;5012445;28;20506;-70
2022/08/07 10:17:59;;;;;;;2.67;1.70;;;29.80;64.50;;;;;;5013843;28;20050;-71
2022/08/07 10:20:35;;;;;;;3.58;1.73;;;28.90;64.70;;;;;;5038524;28;20115;-72
2022/08/07 10:23:36;;;;;;;2.80;1.48;;;29.00;64.80;;;;;;5032870;28;20053;-70
2022/08/07 10:26:23;;;;;;;3.40;1.60;;;29.80;65.10;;;;;;5011649;28;20092;-71
2022/08/07 10:29:07;;;;;;;3.05;1.65;;;30.00;63.30;;;;;;5035605;28;20056;-71
2022/08/07 10:31:50;;;;;;;5.45;1.80;;;30.50;63.20;;;;;;5033336;28;20045;-72
2022/08/07 10:34:30;;;;;;;3.55;1.45;;;30.40;62.50;;;;;;5016802;28;20058;-72
2022/08/07 10:37:09;;;;;;;4.15;1.70;;;30.60;63.80;;;;;;5016975;28;20513;-71
2022/08/07 10:39:46;;;;;;;2.28;1.33;;;31.00;63.20;;;;;;5018916;28;20115;-71
2022/08/07 10:42:27;;;;;;;4.07;1.95;;;31.00;61.50;;;;;;5032282;28;20510;-71
2022/08/07 10:45:01;;;;;;;8.82;2.17;;;31.00;60.70;;;;;;5040708;28;20453;-71
2022/08/07 10:47:40;;;;;;;3.30;2.00;;;31.00;63.00;;;;;;5021919;28;20111;-72
2022/08/07 10:50:12;;;;;;;3.22;1.80;;;30.80;63.70;;;;;;5019325;28;20127;-71
2022/08/07 10:52:50;;;;;;;3.15;1.60;;;31.40;63.10;;;;;;5021694;28;20064;-72
2022/08/07 10:55:21;;;;;;;5.00;2.40;;;31.20;63.10;;;;;;5037603;28;20452;-72
2022/08/07 10:58:03;;;;;;;4.55;1.77;;;31.30;63.10;;;;;;5036750;28;20382;-71
2022/08/07 11:00:36;;;;;;;4.80;1.77;;;31.30;62.50;;;;;;5014302;28;20058;-71
2022/08/07 11:03:07;;;;;;;2.80;1.48;;;31.50;62.80;;;;;;5016019;28;20049;-71
2022/08/07 11:05:44;;;;;;;5.30;1.67;;;31.40;63.00;;;;;;5033338;28;20045;-71
2022/08/07 11:08:19;;;;;;;3.38;1.70;;;31.00;62.80;;;;;;5032941;28;20045;-70
2022/08/07 11:10:51;;;;;;;3.97;1.60;;;30.80;63.20;;;;;;5021485;28;20057;-72
2022/08/07 11:13:25;;;;;;;2.88;1.52;;;30.60;62.80;;;;;;5014554;28;20453;-71
2022/08/07 11:15:57;;;;;;;3.28;1.40;;;31.20;62.50;;;;;;5014309;28;20046;-72
2022/08/07 11:18:34;;;;;;;3.17;1.70;;;31.40;62.10;;;;;;5013795;28;20049;-71
2022/08/07 11:21:08;;;;;;;3.55;1.50;;;32.10;61.00;;;;;;5032416;28;20061;-72
2022/08/07 11:23:46;;;;;;;2.60;1.20;;;32.20;61.20;;;;;;5033991;28;20131;-71
2022/08/07 11:26:20;;;;;;;2.97;1.80;;;31.60;60.70;;;;;;5031550;28;20535;-71
2022/08/07 11:28:56;;;;;;;3.15;1.73;;;31.40;61.50;;;;;;5032226;28;20055;-71
2022/08/07 11:31:31;;;;;;;2.70;1.58;;;31.40;62.40;;;;;;5031315;28;20049;-71
2022/08/07 11:34:08;;;;;;;2.63;1.20;;;31.70;62.30;;;;;;5014367;28;20064;-72
2022/08/07 11:36:43;;;;;;;3.08;1.70;;;31.90;61.80;;;;;;5031972;28;20042;-71
2022/08/07 11:39:19;;;;;;;3.92;2.03;;;30.70;62.20;;;;;;5031620;28;20444;-71
2022/08/07 11:41:53;;;;;;;1.92;1.20;;;29.90;63.60;;;;;;5014759;28;20111;-72
2022/08/07 11:44:28;;;;;;;2.85;1.67;;;30.10;64.30;;;;;;5034317;28;20121;-73
2022/08/07 11:47:03;;;;;;;3.95;1.52;;;30.90;63.10;;;;;;5031119;28;20065;-72
2022/08/07 11:49:56;;;;;;;2.40;1.40;;;31.50;62.20;;;;;;5031841;28;20409;-71
2022/08/07 11:52:49;;;;;;;3.08;1.30;;;32.40;61.50;;;;;;5014276;28;20068;-73
2022/08/07 11:55:29;;;;;;;3.28;1.50;;;32.60;61.60;;;;;;5014354;28;20042;-72
2022/08/07 11:58:05;;;;;;;3.47;1.33;;;32.40;60.30;;;;;;5032090;28;20491;-71
2022/08/07 12:00:47;;;;;;;2.58;1.40;;;32.10;59.80;;;;;;5013447;28;20057;-72
2022/08/07 12:03:41;;;;;;;3.58;1.65;;;31.90;59.40;;;;;;5013747;28;20072;-71
2022/08/07 12:06:25;;;;;;;2.70;1.35;;;32.10;59.30;;;;;;5014698;28;20053;-70
2022/08/07 12:08:58;;;;;;;3.17;1.20;;;32.00;60.40;;;;;;5013623;28;20489;-71
2022/08/07 12:11:31;;;;;;;2.75;1.25;;;32.10;60.70;;;;;;5031598;28;20493;-71
2022/08/07 12:14:07;;;;;;;2.20;1.30;;;32.20;60.20;;;;;;5013858;28;20046;-72
2022/08/07 12:16:45;;;;;;;2.05;1.08;;;32.40;59.70;;;;;;5031248;28;20041;-72
2022/08/07 12:19:27;;;;;;;2.67;1.45;;;32.50;59.70;;;;;;5013715;28;20501;-72
2022/08/07 12:22:02;;;;;;;2.50;1.40;;;31.50;60.00;;;;;;5034502;28;20077;-71
2022/08/07 12:24:37;;;;;;;3.35;1.50;;;30.20;60.50;;;;;;5021816;28;20060;-71
2022/08/07 12:27:10;;;;;;;1.98;1.50;;;29.40;61.40;;;;;;5031407;28;20099;-71
2022/08/07 12:29:46;;;;;;;2.70;1.20;;;28.60;62.40;;;;;;5031596;28;20207;-72
2022/08/07 12:32:20;;;;;;;3.95;1.20;;;28.10;63.60;;;;;;5013699;28;20535;-71
2022/08/07 12:34:49;;;;;;;2.65;1.33;;;28.00;63.50;;;;;;5012808;28;20053;-71
2022/08/07 12:37:18;;;;;;;3.05;1.40;;;28.00;64.80;;;;;;5034340;28;20045;-71
2022/08/07 12:39:48;;;;;;;4.65;1.58;;;28.10;65.80;;;;;;5039112;28;20435;-71
2022/08/07 12:42:19;;;;;;;2.55;1.55;;;27.90;66.30;;;;;;5018274;28;20053;-70
2022/08/07 12:44:48;;;;;;;3.00;1.70;;;27.90;66.70;;;;;;5020850;28;20144;-69
2022/08/07 12:47:24;;;;;;;2.67;1.58;;;27.50;67.30;;;;;;5019708;28;20038;-71
2022/08/07 12:49:57;;;;;;;3.17;1.50;;;27.40;68.20;;;;;;5038503;28;20081;-71
2022/08/07 12:52:48;;;;;;;4.38;1.70;;;27.00;68.20;;;;;;5034862;28;20413;-70
2022/08/07 12:55:22;;;;;;;3.83;1.90;;;27.00;68.90;;;;;;5019179;28;20049;-71
2022/08/07 12:57:50;;;;;;;3.72;2.08;;;27.00;68.60;;;;;;5034814;28;20128;-71
2022/08/07 13:00:17;;;;;;;2.80;1.60;;;26.90;68.40;;;;;;5035546;28;20128;-70
2022/08/07 13:03:05;;;;;;;5.63;1.83;;;26.90;68.30;;;;;;5034847;28;20176;-70
2022/08/07 13:05:44;;;;;;;3.38;1.70;;;27.00;69.50;;;;;;5038312;28;20049;-70
2022/08/07 13:08:33;;;;;;;6.68;1.98;;;26.80;69.80;;;;;;5042380;28;20048;-70
2022/08/07 13:11:10;;;;;;;3.73;2.07;;;26.80;69.70;;;;;;5037004;28;20045;-68
2022/08/07 13:13:51;;;;;;;3.38;2.15;;;26.60;70.40;;;;;;5022413;28;20311;-69
2022/08/07 13:16:29;;;;;;;3.72;1.70;;;26.40;70.50;;;;;;5015696;28;20121;-70